sensor_id;sensor_type;location;lat;lon;timestamp;P1;durP1;ratioP1;P2;durP2;ratioP2
59306;SDS011;47983;53.016;-2.260;2023-07-13T00:00:38;13.63;;;3.67;;
59306;SDS011;47983;53.016;-2.260;2023-07-13T00:03:06;7.95;;;2.78;;
59306;SDS011;47983;53.016;-2.260;2023-07-13T00:05:34;11.13;;;2.97;;
59306;SDS011;47983;53.016;-2.260;2023-07-13T00:08:02;12.63;;;2.95;;
59306;SDS011;47983;53.016;-2.260;2023-07-13T00:10:29;8.82;;;3.80;;
59306;SDS011;47983;53.016;-2.260;2023-07-13T00:12:57;9.02;;;3.10;;
59306;SDS011;47983;53.016;-2.260;2023-07-13T00:15:25;5.05;;;2.50;;
59306;SDS011;47983;53.016;-2.260;2023-07-13T00:17:54;13.60;;;3.17;;
59306;SDS011;47983;53.016;-2.260;2023-07-13T00:20:22;8.02;;;2.85;;
59306;SDS011;47983;53.016;-2.260;2023-07-13T00:22:52;11.13;;;2.92;;
59306;SDS011;47983;53.016;-2.260;2023-07-13T00:25:21;14.18;;;2.80;;
59306;SDS011;47983;53.016;-2.260;2023-07-13T00:27:55;12.82;;;3.95;;
59306;SDS011;47983;53.016;-2.260;2023-07-13T00:30:23;15.23;;;4.20;;
59306;SDS011;47983;53.016;-2.260;2023-07-13T00:32:51;12.57;;;3.28;;
59306;SDS011;47983;53.016;-2.260;2023-07-13T00:35:30;8.68;;;3.33;;
59306;SDS011;47983;53.016;-2.260;2023-07-13T00:37:59;10.15;;;2.67;;
59306;SDS011;47983;53.016;-2.260;2023-07-13T00:40:27;11.07;;;3.08;;
59306;SDS011;47983;53.016;-2.260;2023-07-13T00:42:56;8.23;;;3.08;;
59306;SDS011;47983;53.016;-2.260;2023-07-13T00:47:54;7.55;;;3.08;;
59306;SDS011;47983;53.016;-2.260;2023-07-13T00:50:24;10.18;;;3.30;;
59306;SDS011;47983;53.016;-2.260;2023-07-13T00:52:53;11.30;;;3.50;;
59306;SDS011;47983;53.016;-2.260;2023-07-13T00:55:25;7.95;;;2.72;;
59306;SDS011;47983;53.016;-2.260;2023-07-13T00:57:53;11.15;;;3.15;;
59306;SDS011;47983;53.016;-2.260;2023-07-13T01:00:21;13.48;;;3.40;;
59306;SDS011;47983;53.016;-2.260;2023-07-13T01:02:50;14.73;;;3.72;;
59306;SDS011;47983;53.016;-2.260;2023-07-13T01:05:19;4.40;;;3.00;;
59306;SDS011;47983;53.016;-2.260;2023-07-13T01:07:50;13.20;;;2.78;;
59306;SDS011;47983;53.016;-2.260;2023-07-13T01:10:22;12.05;;;3.00;;
59306;SDS011;47983;53.016;-2.260;2023-07-13T01:12:52;10.38;;;2.78;;
59306;SDS011;47983;53.016;-2.260;2023-07-13T01:18:22;12.50;;;3.05;;
59306;SDS011;47983;53.016;-2.260;2023-07-13T01:20:59;11.18;;;2.95;;
59306;SDS011;47983;53.016;-2.260;2023-07-13T01:23:29;15.27;;;3.10;;
59306;SDS011;47983;53.016;-2.260;2023-07-13T01:25:59;9.55;;;2.63;;
59306;SDS011;47983;53.016;-2.260;2023-07-13T01:28:29;4.40;;;2.55;;
59306;SDS011;47983;53.016;-2.260;2023-07-13T01:30:59;11.10;;;2.67;;
59306;SDS011;47983;53.016;-2.260;2023-07-13T01:33:26;10.20;;;2.83;;
59306;SDS011;47983;53.016;-2.260;2023-07-13T01:35:55;6.88;;;2.70;;
59306;SDS011;47983;53.016;-2.260;2023-07-13T01:38:26;5.32;;;2.80;;
59306;SDS011;47983;53.016;-2.260;2023-07-13T01:40:54;7.85;;;3.20;;
59306;SDS011;47983;53.016;-2.260;2023-07-13T01:43:24;5.28;;;2.70;;
59306;SDS011;47983;53.016;-2.260;2023-07-13T01:45:51;6.88;;;2.65;;
59306;SDS011;47983;53.016;-2.260;2023-07-13T01:48:27;7.55;;;3.03;;
59306;SDS011;47983;53.016;-2.260;2023-07-13T01:50:54;9.73;;;2.75;;
59306;SDS011;47983;53.016;-2.260;2023-07-13T01:53:22;12.15;;;2.55;;
59306;SDS011;47983;53.016;-2.260;2023-07-13T01:55:52;8.18;;;2.92;;
59306;SDS011;47983;53.016;-2.260;2023-07-13T02:00:48;6.22;;;2.35;;
59306;SDS011;47983;53.016;-2.260;2023-07-13T02:03:17;6.07;;;2.58;;
59306;SDS011;47983;53.016;-2.260;2023-07-13T02:05:45;5.43;;;2.10;;
59306;SDS011;47983;53.016;-2.260;2023-07-13T02:08:13;8.80;;;2.80;;
59306;SDS011;47983;53.016;-2.260;2023-07-13T02:10:40;6.57;;;2.97;;
59306;SDS011;47983;53.016;-2.260;2023-07-13T02:13:08;6.85;;;1.70;;
59306;SDS011;47983;53.016;-2.260;2023-07-13T02:15:38;5.13;;;2.30;;
59306;SDS011;47983;53.016;-2.260;2023-07-13T02:18:07;7.22;;;2.38;;
59306;SDS011;47983;53.016;-2.260;2023-07-13T02:20:35;6.40;;;2.72;;
59306;SDS011;47983;53.016;-2.260;2023-07-13T02:23:03;5.63;;;2.45;;
59306;SDS011;47983;53.016;-2.260;2023-07-13T02:25:34;8.68;;;2.28;;
59306;SDS011;47983;53.016;-2.260;2023-07-13T02:28:01;9.13;;;2.28;;
59306;SDS011;47983;53.016;-2.260;2023-07-13T02:30:30;6.50;;;2.58;;
59306;SDS011;47983;53.016;-2.260;2023-07-13T02:32:58;9.52;;;2.97;;
59306;SDS011;47983;53.016;-2.260;2023-07-13T02:35:25;6.28;;;2.33;;
59306;SDS011;47983;53.016;-2.260;2023-07-13T02:37:53;3.72;;;2.50;;
59306;SDS011;47983;53.016;-2.260;2023-07-13T02:40:21;7.13;;;2.90;;
59306;SDS011;47983;53.016;-2.260;2023-07-13T02:42:48;7.57;;;2.25;;
59306;SDS011;47983;53.016;-2.260;2023-07-13T02:45:16;8.25;;;3.13;;
59306;SDS011;47983;53.016;-2.260;2023-07-13T02:47:44;7.00;;;2.72;;
59306;SDS011;47983;53.016;-2.260;2023-07-13T02:50:11;6.18;;;2.97;;
59306;SDS011;47983;53.016;-2.260;2023-07-13T02:52:39;7.35;;;3.00;;
59306;SDS011;47983;53.016;-2.260;2023-07-13T02:55:06;5.60;;;2.80;;
59306;SDS011;47983;53.016;-2.260;2023-07-13T02:57:34;10.32;;;2.90;;
59306;SDS011;47983;53.016;-2.260;2023-07-13T03:00:02;7.47;;;2.80;;
59306;SDS011;47983;53.016;-2.260;2023-07-13T03:02:34;6.72;;;2.55;;
59306;SDS011;47983;53.016;-2.260;2023-07-13T03:05:02;8.02;;;2.85;;
59306;SDS011;47983;53.016;-2.260;2023-07-13T03:07:31;8.77;;;2.85;;
59306;SDS011;47983;53.016;-2.260;2023-07-13T03:09:59;7.25;;;2.85;;
59306;SDS011;47983;53.016;-2.260;2023-07-13T03:12:37;8.75;;;2.80;;
59306;SDS011;47983;53.016;-2.260;2023-07-13T03:15:10;6.53;;;2.95;;
59306;SDS011;47983;53.016;-2.260;2023-07-13T03:17:40;6.40;;;2.70;;
59306;SDS011;47983;53.016;-2.260;2023-07-13T03:20:08;11.10;;;3.13;;
59306;SDS011;47983;53.016;-2.260;2023-07-13T03:22:36;10.38;;;2.95;;
59306;SDS011;47983;53.016;-2.260;2023-07-13T03:25:04;5.38;;;3.63;;
59306;SDS011;47983;53.016;-2.260;2023-07-13T03:27:32;4.53;;;2.60;;
59306;SDS011;47983;53.016;-2.260;2023-07-13T03:30:00;10.35;;;3.17;;
59306;SDS011;47983;53.016;-2.260;2023-07-13T03:32:28;6.68;;;2.97;;
59306;SDS011;47983;53.016;-2.260;2023-07-13T03:34:56;8.20;;;3.08;;
59306;SDS011;47983;53.016;-2.260;2023-07-13T03:37:23;7.32;;;2.90;;
59306;SDS011;47983;53.016;-2.260;2023-07-13T03:39:51;5.07;;;3.17;;
59306;SDS011;47983;53.016;-2.260;2023-07-13T03:42:20;10.80;;;3.05;;
59306;SDS011;47983;53.016;-2.260;2023-07-13T03:44:48;4.03;;;2.75;;
59306;SDS011;47983;53.016;-2.260;2023-07-13T03:47:19;5.80;;;3.17;;
59306;SDS011;47983;53.016;-2.260;2023-07-13T03:49:47;6.20;;;3.05;;
59306;SDS011;47983;53.016;-2.260;2023-07-13T03:52:15;8.85;;;3.25;;
59306;SDS011;47983;53.016;-2.260;2023-07-13T03:54:42;6.00;;;3.30;;
59306;SDS011;47983;53.016;-2.260;2023-07-13T03:57:10;9.40;;;3.35;;
59306;SDS011;47983;53.016;-2.260;2023-07-13T03:59:38;7.50;;;3.25;;
59306;SDS011;47983;53.016;-2.260;2023-07-13T04:02:08;7.88;;;3.13;;
59306;SDS011;47983;53.016;-2.260;2023-07-13T04:04:35;11.27;;;3.92;;
59306;SDS011;47983;53.016;-2.260;2023-07-13T04:07:03;10.30;;;3.65;;
59306;SDS011;47983;53.016;-2.260;2023-07-13T04:09:31;7.07;;;3.67;;
59306;SDS011;47983;53.016;-2.260;2023-07-13T04:11:59;7.45;;;3.72;;
59306;SDS011;47983;53.016;-2.260;2023-07-13T04:14:27;10.15;;;3.85;;
59306;SDS011;47983;53.016;-2.260;2023-07-13T04:16:55;5.55;;;3.20;;
59306;SDS011;47983;53.016;-2.260;2023-07-13T04:19:23;5.88;;;2.92;;
59306;SDS011;47983;53.016;-2.260;2023-07-13T04:21:50;8.65;;;3.58;;
59306;SDS011;47983;53.016;-2.260;2023-07-13T04:24:18;6.25;;;3.55;;
59306;SDS011;47983;53.016;-2.260;2023-07-13T04:26:46;6.20;;;3.42;;
59306;SDS011;47983;53.016;-2.260;2023-07-13T04:29:13;9.32;;;3.30;;
59306;SDS011;47983;53.016;-2.260;2023-07-13T04:31:42;9.68;;;3.95;;
59306;SDS011;47983;53.016;-2.260;2023-07-13T04:34:10;10.38;;;4.10;;
59306;SDS011;47983;53.016;-2.260;2023-07-13T04:36:37;5.35;;;3.22;;
59306;SDS011;47983;53.016;-2.260;2023-07-13T04:39:05;6.88;;;3.55;;
59306;SDS011;47983;53.016;-2.260;2023-07-13T04:41:33;8.90;;;3.80;;
59306;SDS011;47983;53.016;-2.260;2023-07-13T04:44:02;19.63;;;4.00;;
59306;SDS011;47983;53.016;-2.260;2023-07-13T04:46:30;7.72;;;4.15;;
59306;SDS011;47983;53.016;-2.260;2023-07-13T04:48:58;8.20;;;4.00;;
59306;SDS011;47983;53.016;-2.260;2023-07-13T04:51:25;7.63;;;3.80;;
59306;SDS011;47983;53.016;-2.260;2023-07-13T04:53:53;7.82;;;4.55;;
59306;SDS011;47983;53.016;-2.260;2023-07-13T04:56:27;8.68;;;3.88;;
59306;SDS011;47983;53.016;-2.260;2023-07-13T04:58:54;6.43;;;3.67;;
59306;SDS011;47983;53.016;-2.260;2023-07-13T05:01:22;7.03;;;3.95;;
59306;SDS011;47983;53.016;-2.260;2023-07-13T05:03:50;11.65;;;4.53;;
59306;SDS011;47983;53.016;-2.260;2023-07-13T05:06:18;7.20;;;3.60;;
59306;SDS011;47983;53.016;-2.260;2023-07-13T05:08:46;8.05;;;3.92;;
59306;SDS011;47983;53.016;-2.260;2023-07-13T05:11:14;8.77;;;4.05;;
59306;SDS011;47983;53.016;-2.260;2023-07-13T05:13:41;8.77;;;3.70;;
59306;SDS011;47983;53.016;-2.260;2023-07-13T05:16:09;12.85;;;3.63;;
59306;SDS011;47983;53.016;-2.260;2023-07-13T05:18:37;10.32;;;4.03;;
59306;SDS011;47983;53.016;-2.260;2023-07-13T05:21:09;9.38;;;3.28;;
59306;SDS011;47983;53.016;-2.260;2023-07-13T05:26:09;5.07;;;2.47;;
59306;SDS011;47983;53.016;-2.260;2023-07-13T05:28:37;6.60;;;3.08;;
59306;SDS011;47983;53.016;-2.260;2023-07-13T05:31:06;6.55;;;2.67;;
59306;SDS011;47983;53.016;-2.260;2023-07-13T05:33:35;9.95;;;2.60;;
59306;SDS011;47983;53.016;-2.260;2023-07-13T05:36:03;7.65;;;2.83;;
59306;SDS011;47983;53.016;-2.260;2023-07-13T05:38:31;5.95;;;2.72;;
59306;SDS011;47983;53.016;-2.260;2023-07-13T05:40:59;12.50;;;3.15;;
59306;SDS011;47983;53.016;-2.260;2023-07-13T05:43:31;8.27;;;3.67;;
59306;SDS011;47983;53.016;-2.260;2023-07-13T05:45:59;6.63;;;2.97;;
59306;SDS011;47983;53.016;-2.260;2023-07-13T05:48:27;4.00;;;2.97;;
59306;SDS011;47983;53.016;-2.260;2023-07-13T05:50:54;6.90;;;2.72;;
59306;SDS011;47983;53.016;-2.260;2023-07-13T05:53:22;8.13;;;3.25;;
59306;SDS011;47983;53.016;-2.260;2023-07-13T05:55:50;7.95;;;3.00;;
59306;SDS011;47983;53.016;-2.260;2023-07-13T05:58:20;7.25;;;3.53;;
59306;SDS011;47983;53.016;-2.260;2023-07-13T06:00:58;5.53;;;2.83;;
59306;SDS011;47983;53.016;-2.260;2023-07-13T06:03:33;7.00;;;2.72;;
59306;SDS011;47983;53.016;-2.260;2023-07-13T06:06:01;6.65;;;2.38;;
59306;SDS011;47983;53.016;-2.260;2023-07-13T06:08:29;3.17;;;2.05;;
59306;SDS011;47983;53.016;-2.260;2023-07-13T06:13:32;5.72;;;1.73;;
59306;SDS011;47983;53.016;-2.260;2023-07-13T06:16:01;5.13;;;1.38;;
59306;SDS011;47983;53.016;-2.260;2023-07-13T06:18:32;1.75;;;1.20;;
59306;SDS011;47983;53.016;-2.260;2023-07-13T06:21:04;2.92;;;1.42;;
59306;SDS011;47983;53.016;-2.260;2023-07-13T06:23:38;4.88;;;1.35;;
59306;SDS011;47983;53.016;-2.260;2023-07-13T06:26:06;4.15;;;1.10;;
59306;SDS011;47983;53.016;-2.260;2023-07-13T06:28:35;6.10;;;1.50;;
59306;SDS011;47983;53.016;-2.260;2023-07-13T06:31:05;5.22;;;1.20;;
59306;SDS011;47983;53.016;-2.260;2023-07-13T06:33:34;4.15;;;1.98;;
59306;SDS011;47983;53.016;-2.260;2023-07-13T06:36:03;2.72;;;1.15;;
59306;SDS011;47983;53.016;-2.260;2023-07-13T06:38:32;4.38;;;1.30;;
59306;SDS011;47983;53.016;-2.260;2023-07-13T06:41:00;7.40;;;1.50;;
59306;SDS011;47983;53.016;-2.260;2023-07-13T06:43:28;3.42;;;1.02;;
59306;SDS011;47983;53.016;-2.260;2023-07-13T06:45:59;5.60;;;1.10;;
59306;SDS011;47983;53.016;-2.260;2023-07-13T06:48:26;2.47;;;0.93;;
59306;SDS011;47983;53.016;-2.260;2023-07-13T06:50:55;2.95;;;1.13;;
59306;SDS011;47983;53.016;-2.260;2023-07-13T06:53:23;6.78;;;0.98;;
59306;SDS011;47983;53.016;-2.260;2023-07-13T06:55:51;3.38;;;1.30;;
59306;SDS011;47983;53.016;-2.260;2023-07-13T06:58:19;3.90;;;1.10;;
59306;SDS011;47983;53.016;-2.260;2023-07-13T07:00:49;4.50;;;1.30;;
59306;SDS011;47983;53.016;-2.260;2023-07-13T07:03:18;3.38;;;1.00;;
59306;SDS011;47983;53.016;-2.260;2023-07-13T07:05:46;3.88;;;0.90;;
59306;SDS011;47983;53.016;-2.260;2023-07-13T07:08:14;4.43;;;1.20;;
59306;SDS011;47983;53.016;-2.260;2023-07-13T07:10:42;7.72;;;1.60;;
59306;SDS011;47983;53.016;-2.260;2023-07-13T07:13:09;3.70;;;1.08;;
59306;SDS011;47983;53.016;-2.260;2023-07-13T07:15:37;4.95;;;1.10;;
59306;SDS011;47983;53.016;-2.260;2023-07-13T07:18:05;2.53;;;1.17;;
59306;SDS011;47983;53.016;-2.260;2023-07-13T07:20:33;3.67;;;1.13;;
59306;SDS011;47983;53.016;-2.260;2023-07-13T07:23:01;3.45;;;1.45;;
59306;SDS011;47983;53.016;-2.260;2023-07-13T07:25:29;6.15;;;1.45;;
59306;SDS011;47983;53.016;-2.260;2023-07-13T07:27:59;1.92;;;1.35;;
59306;SDS011;47983;53.016;-2.260;2023-07-13T07:30:29;4.68;;;1.35;;
59306;SDS011;47983;53.016;-2.260;2023-07-13T07:33:00;6.72;;;1.50;;
59306;SDS011;47983;53.016;-2.260;2023-07-13T07:35:31;2.83;;;1.30;;
59306;SDS011;47983;53.016;-2.260;2023-07-13T07:38:05;1.75;;;1.30;;
59306;SDS011;47983;53.016;-2.260;2023-07-13T07:40:35;4.15;;;1.58;;
59306;SDS011;47983;53.016;-2.260;2023-07-13T07:43:07;4.00;;;1.80;;
59306;SDS011;47983;53.016;-2.260;2023-07-13T07:45:37;4.20;;;1.55;;
59306;SDS011;47983;53.016;-2.260;2023-07-13T07:48:07;6.45;;;1.63;;
59306;SDS011;47983;53.016;-2.260;2023-07-13T07:50:37;3.10;;;1.70;;
59306;SDS011;47983;53.016;-2.260;2023-07-13T07:53:06;10.05;;;1.98;;
59306;SDS011;47983;53.016;-2.260;2023-07-13T07:55:34;5.40;;;1.88;;
59306;SDS011;47983;53.016;-2.260;2023-07-13T07:58:05;6.40;;;1.92;;
59306;SDS011;47983;53.016;-2.260;2023-07-13T08:00:53;6.78;;;2.67;;
59306;SDS011;47983;53.016;-2.260;2023-07-13T08:03:24;5.13;;;1.65;;
59306;SDS011;47983;53.016;-2.260;2023-07-13T08:05:55;6.38;;;2.00;;
59306;SDS011;47983;53.016;-2.260;2023-07-13T08:08:43;6.28;;;1.80;;
59306;SDS011;47983;53.016;-2.260;2023-07-13T08:11:11;6.63;;;1.60;;
59306;SDS011;47983;53.016;-2.260;2023-07-13T08:13:41;8.82;;;2.33;;
59306;SDS011;47983;53.016;-2.260;2023-07-13T08:16:10;7.78;;;1.90;;
59306;SDS011;47983;53.016;-2.260;2023-07-13T08:18:39;7.25;;;2.92;;
59306;SDS011;47983;53.016;-2.260;2023-07-13T08:21:07;6.82;;;2.10;;
59306;SDS011;47983;53.016;-2.260;2023-07-13T08:23:36;5.60;;;1.95;;
59306;SDS011;47983;53.016;-2.260;2023-07-13T08:26:04;5.28;;;1.50;;
59306;SDS011;47983;53.016;-2.260;2023-07-13T08:28:32;2.90;;;1.02;;
59306;SDS011;47983;53.016;-2.260;2023-07-13T08:31:02;4.53;;;1.20;;
59306;SDS011;47983;53.016;-2.260;2023-07-13T08:33:31;3.92;;;1.50;;
59306;SDS011;47983;53.016;-2.260;2023-07-13T08:36:01;6.97;;;2.13;;
59306;SDS011;47983;53.016;-2.260;2023-07-13T08:38:29;6.88;;;1.83;;
59306;SDS011;47983;53.016;-2.260;2023-07-13T08:40:57;3.53;;;1.55;;
59306;SDS011;47983;53.016;-2.260;2023-07-13T08:43:25;6.70;;;1.80;;
59306;SDS011;47983;53.016;-2.260;2023-07-13T08:48:36;5.38;;;1.42;;
59306;SDS011;47983;53.016;-2.260;2023-07-13T08:56:58;6.80;;;1.30;;
59306;SDS011;47983;53.016;-2.260;2023-07-13T08:59:30;5.70;;;1.20;;
59306;SDS011;47983;53.016;-2.260;2023-07-13T09:04:50;5.18;;;1.42;;
59306;SDS011;47983;53.016;-2.260;2023-07-13T09:07:34;3.47;;;1.25;;
59306;SDS011;47983;53.016;-2.260;2023-07-13T09:10:17;5.68;;;1.45;;
59306;SDS011;47983;53.016;-2.260;2023-07-13T09:15:31;5.65;;;1.40;;
59306;SDS011;47983;53.016;-2.260;2023-07-13T09:18:04;7.50;;;1.55;;
59306;SDS011;47983;53.016;-2.260;2023-07-13T09:20:42;2.08;;;1.02;;
59306;SDS011;47983;53.016;-2.260;2023-07-13T09:23:23;2.97;;;1.08;;
59306;SDS011;47983;53.016;-2.260;2023-07-13T09:25:55;5.15;;;1.30;;
59306;SDS011;47983;53.016;-2.260;2023-07-13T09:28:43;4.10;;;0.93;;
59306;SDS011;47983;53.016;-2.260;2023-07-13T09:31:14;2.38;;;0.80;;
59306;SDS011;47983;53.016;-2.260;2023-07-13T09:34:08;3.25;;;0.90;;
59306;SDS011;47983;53.016;-2.260;2023-07-13T09:36:37;2.00;;;1.10;;
59306;SDS011;47983;53.016;-2.260;2023-07-13T09:42:15;2.30;;;0.80;;
59306;SDS011;47983;53.016;-2.260;2023-07-13T09:44:53;1.55;;;0.85;;
59306;SDS011;47983;53.016;-2.260;2023-07-13T09:47:22;2.08;;;1.15;;
59306;SDS011;47983;53.016;-2.260;2023-07-13T09:49:54;2.75;;;0.90;;
59306;SDS011;47983;53.016;-2.260;2023-07-13T09:52:42;3.72;;;1.10;;
59306;SDS011;47983;53.016;-2.260;2023-07-13T09:55:23;4.22;;;1.08;;
59306;SDS011;47983;53.016;-2.260;2023-07-13T09:57:52;6.00;;;1.15;;
59306;SDS011;47983;53.016;-2.260;2023-07-13T10:00:28;4.18;;;1.10;;
59306;SDS011;47983;53.016;-2.260;2023-07-13T10:05:43;1.90;;;0.90;;
59306;SDS011;47983;53.016;-2.260;2023-07-13T10:08:24;5.30;;;1.70;;
59306;SDS011;47983;53.016;-2.260;2023-07-13T10:10:58;3.85;;;1.27;;
59306;SDS011;47983;53.016;-2.260;2023-07-13T10:13:27;5.35;;;1.02;;
59306;SDS011;47983;53.016;-2.260;2023-07-13T10:16:16;1.40;;;1.08;;
59306;SDS011;47983;53.016;-2.260;2023-07-13T10:18:46;3.67;;;1.38;;
59306;SDS011;47983;53.016;-2.260;2023-07-13T10:21:19;6.88;;;1.27;;
59306;SDS011;47983;53.016;-2.260;2023-07-13T10:24:19;4.75;;;1.40;;
59306;SDS011;47983;53.016;-2.260;2023-07-13T10:26:48;2.10;;;1.10;;
59306;SDS011;47983;53.016;-2.260;2023-07-13T10:29:34;2.28;;;0.98;;
59306;SDS011;47983;53.016;-2.260;2023-07-13T10:32:09;2.40;;;0.80;;
59306;SDS011;47983;53.016;-2.260;2023-07-13T10:34:40;4.03;;;1.17;;
59306;SDS011;47983;53.016;-2.260;2023-07-13T10:37:31;3.80;;;1.35;;
59306;SDS011;47983;53.016;-2.260;2023-07-13T10:40:06;3.92;;;1.30;;
59306;SDS011;47983;53.016;-2.260;2023-07-13T10:42:43;4.82;;;1.35;;
59306;SDS011;47983;53.016;-2.260;2023-07-13T10:45:15;1.92;;;1.05;;
59306;SDS011;47983;53.016;-2.260;2023-07-13T10:47:46;4.85;;;1.05;;
59306;SDS011;47983;53.016;-2.260;2023-07-13T10:50:18;7.30;;;1.40;;
59306;SDS011;47983;53.016;-2.260;2023-07-13T10:52:50;3.15;;;0.95;;
59306;SDS011;47983;53.016;-2.260;2023-07-13T11:03:18;1.40;;;0.75;;
59306;SDS011;47983;53.016;-2.260;2023-07-13T11:05:50;3.22;;;0.93;;
59306;SDS011;47983;53.016;-2.260;2023-07-13T11:08:33;2.60;;;1.00;;
59306;SDS011;47983;53.016;-2.260;2023-07-13T11:11:35;5.28;;;1.00;;
59306;SDS011;47983;53.016;-2.260;2023-07-13T11:18:53;5.55;;;1.13;;
59306;SDS011;47983;53.016;-2.260;2023-07-13T11:25:20;5.13;;;1.08;;
59306;SDS011;47983;53.016;-2.260;2023-07-13T11:27:41;3.88;;;1.08;;
59306;SDS011;47983;53.016;-2.260;2023-07-13T11:38:15;4.78;;;1.38;;
59306;SDS011;47983;53.016;-2.260;2023-07-13T11:40:46;1.85;;;0.90;;
59306;SDS011;47983;53.016;-2.260;2023-07-13T11:43:19;6.30;;;1.13;;
59306;SDS011;47983;53.016;-2.260;2023-07-13T11:45:50;4.47;;;1.50;;
59306;SDS011;47983;53.016;-2.260;2023-07-13T11:48:23;3.63;;;1.02;;
59306;SDS011;47983;53.016;-2.260;2023-07-13T11:51:02;1.45;;;1.00;;
59306;SDS011;47983;53.016;-2.260;2023-07-13T11:53:43;4.45;;;0.90;;
59306;SDS011;47983;53.016;-2.260;2023-07-13T11:56:12;6.80;;;1.45;;
59306;SDS011;47983;53.016;-2.260;2023-07-13T11:58:41;2.15;;;1.30;;
59306;SDS011;47983;53.016;-2.260;2023-07-13T12:01:16;3.58;;;0.95;;
59306;SDS011;47983;53.016;-2.260;2023-07-13T12:03:48;3.35;;;1.10;;
59306;SDS011;47983;53.016;-2.260;2023-07-13T12:06:31;2.00;;;0.80;;
59306;SDS011;47983;53.016;-2.260;2023-07-13T12:09:02;9.43;;;1.77;;
59306;SDS011;47983;53.016;-2.260;2023-07-13T12:11:42;5.78;;;1.40;;
59306;SDS011;47983;53.016;-2.260;2023-07-13T12:14:14;2.47;;;1.48;;
59306;SDS011;47983;53.016;-2.260;2023-07-13T12:16:43;2.50;;;0.98;;
59306;SDS011;47983;53.016;-2.260;2023-07-13T12:19:17;2.95;;;1.00;;
59306;SDS011;47983;53.016;-2.260;2023-07-13T12:21:49;2.28;;;1.15;;
59306;SDS011;47983;53.016;-2.260;2023-07-13T12:24:20;6.00;;;1.48;;
59306;SDS011;47983;53.016;-2.260;2023-07-13T12:26:51;4.47;;;1.30;;
59306;SDS011;47983;53.016;-2.260;2023-07-13T12:29:26;3.53;;;1.60;;
59306;SDS011;47983;53.016;-2.260;2023-07-13T12:31:55;4.47;;;1.33;;
59306;SDS011;47983;53.016;-2.260;2023-07-13T12:34:24;7.63;;;1.95;;
59306;SDS011;47983;53.016;-2.260;2023-07-13T12:39:24;3.80;;;1.60;;
59306;SDS011;47983;53.016;-2.260;2023-07-13T12:41:53;4.10;;;1.42;;
59306;SDS011;47983;53.016;-2.260;2023-07-13T12:44:39;2.95;;;1.50;;
59306;SDS011;47983;53.016;-2.260;2023-07-13T12:47:11;6.40;;;1.73;;
59306;SDS011;47983;53.016;-2.260;2023-07-13T12:49:43;6.13;;;1.00;;
59306;SDS011;47983;53.016;-2.260;2023-07-13T12:52:19;2.83;;;1.27;;
59306;SDS011;47983;53.016;-2.260;2023-07-13T12:54:57;7.75;;;1.20;;
59306;SDS011;47983;53.016;-2.260;2023-07-13T12:57:37;6.03;;;1.40;;
59306;SDS011;47983;53.016;-2.260;2023-07-13T13:00:24;2.15;;;1.10;;
59306;SDS011;47983;53.016;-2.260;2023-07-13T13:03:07;7.22;;;1.60;;
59306;SDS011;47983;53.016;-2.260;2023-07-13T13:05:57;8.95;;;1.60;;
59306;SDS011;47983;53.016;-2.260;2023-07-13T13:08:26;4.75;;;1.60;;
59306;SDS011;47983;53.016;-2.260;2023-07-13T13:10:54;2.90;;;1.15;;
59306;SDS011;47983;53.016;-2.260;2023-07-13T13:13:23;5.45;;;1.98;;
59306;SDS011;47983;53.016;-2.260;2023-07-13T13:15:51;3.25;;;1.65;;
59306;SDS011;47983;53.016;-2.260;2023-07-13T13:18:21;4.05;;;1.73;;
59306;SDS011;47983;53.016;-2.260;2023-07-13T13:20:51;3.70;;;1.50;;
59306;SDS011;47983;53.016;-2.260;2023-07-13T13:23:20;2.10;;;1.42;;
59306;SDS011;47983;53.016;-2.260;2023-07-13T13:25:50;3.70;;;1.88;;
59306;SDS011;47983;53.016;-2.260;2023-07-13T13:28:19;3.45;;;1.48;;
59306;SDS011;47983;53.016;-2.260;2023-07-13T13:30:48;3.67;;;1.67;;
59306;SDS011;47983;53.016;-2.260;2023-07-13T13:33:19;5.78;;;1.98;;
59306;SDS011;47983;53.016;-2.260;2023-07-13T13:35:49;2.67;;;1.33;;
59306;SDS011;47983;53.016;-2.260;2023-07-13T13:38:19;4.43;;;1.88;;
59306;SDS011;47983;53.016;-2.260;2023-07-13T13:40:50;7.00;;;1.17;;
59306;SDS011;47983;53.016;-2.260;2023-07-13T13:43:23;4.30;;;1.73;;
59306;SDS011;47983;53.016;-2.260;2023-07-13T13:45:55;5.47;;;1.67;;
59306;SDS011;47983;53.016;-2.260;2023-07-13T13:48:35;2.70;;;1.20;;
59306;SDS011;47983;53.016;-2.260;2023-07-13T13:51:12;3.90;;;1.70;;
59306;SDS011;47983;53.016;-2.260;2023-07-13T13:53:42;3.38;;;1.38;;
59306;SDS011;47983;53.016;-2.260;2023-07-13T13:56:12;6.13;;;1.52;;
59306;SDS011;47983;53.016;-2.260;2023-07-13T13:58:41;1.40;;;0.98;;
59306;SDS011;47983;53.016;-2.260;2023-07-13T14:01:13;4.32;;;1.27;;
59306;SDS011;47983;53.016;-2.260;2023-07-13T14:03:46;5.57;;;1.75;;
59306;SDS011;47983;53.016;-2.260;2023-07-13T14:06:15;7.68;;;1.23;;
59306;SDS011;47983;53.016;-2.260;2023-07-13T14:08:44;3.00;;;1.45;;
59306;SDS011;47983;53.016;-2.260;2023-07-13T14:11:15;3.25;;;1.33;;
59306;SDS011;47983;53.016;-2.260;2023-07-13T14:13:47;4.13;;;1.35;;
59306;SDS011;47983;53.016;-2.260;2023-07-13T14:16:20;2.55;;;1.27;;
59306;SDS011;47983;53.016;-2.260;2023-07-13T14:18:49;4.57;;;1.67;;
59306;SDS011;47983;53.016;-2.260;2023-07-13T14:21:19;6.13;;;1.50;;
59306;SDS011;47983;53.016;-2.260;2023-07-13T14:23:48;3.63;;;1.42;;
59306;SDS011;47983;53.016;-2.260;2023-07-13T14:26:17;4.75;;;1.50;;
59306;SDS011;47983;53.016;-2.260;2023-07-13T14:28:49;6.05;;;1.80;;
59306;SDS011;47983;53.016;-2.260;2023-07-13T14:31:19;1.80;;;0.90;;
59306;SDS011;47983;53.016;-2.260;2023-07-13T14:33:48;7.55;;;1.65;;
59306;SDS011;47983;53.016;-2.260;2023-07-13T14:38:57;8.52;;;1.48;;
59306;SDS011;47983;53.016;-2.260;2023-07-13T14:41:26;8.52;;;2.05;;
59306;SDS011;47983;53.016;-2.260;2023-07-13T14:43:54;6.07;;;1.55;;
59306;SDS011;47983;53.016;-2.260;2023-07-13T14:46:29;3.40;;;1.75;;
59306;SDS011;47983;53.016;-2.260;2023-07-13T14:49:06;5.85;;;1.55;;
59306;SDS011;47983;53.016;-2.260;2023-07-13T14:51:57;10.45;;;1.52;;
59306;SDS011;47983;53.016;-2.260;2023-07-13T14:54:26;7.97;;;1.48;;
59306;SDS011;47983;53.016;-2.260;2023-07-13T14:56:54;5.55;;;1.83;;
59306;SDS011;47983;53.016;-2.260;2023-07-13T14:59:22;2.80;;;1.30;;
59306;SDS011;47983;53.016;-2.260;2023-07-13T15:01:51;7.20;;;1.80;;
59306;SDS011;47983;53.016;-2.260;2023-07-13T15:04:19;8.63;;;1.55;;
59306;SDS011;47983;53.016;-2.260;2023-07-13T15:06:57;8.52;;;1.70;;
59306;SDS011;47983;53.016;-2.260;2023-07-13T15:09:27;8.70;;;1.63;;
59306;SDS011;47983;53.016;-2.260;2023-07-13T15:11:58;7.82;;;2.03;;
59306;SDS011;47983;53.016;-2.260;2023-07-13T15:14:26;2.85;;;1.40;;
59306;SDS011;47983;53.016;-2.260;2023-07-13T15:16:58;4.15;;;1.77;;
59306;SDS011;47983;53.016;-2.260;2023-07-13T15:19:26;4.03;;;1.60;;
59306;SDS011;47983;53.016;-2.260;2023-07-13T15:21:55;10.27;;;1.40;;
59306;SDS011;47983;53.016;-2.260;2023-07-13T15:24:25;5.47;;;1.35;;
59306;SDS011;47983;53.016;-2.260;2023-07-13T15:26:54;4.15;;;1.30;;
59306;SDS011;47983;53.016;-2.260;2023-07-13T15:29:22;9.95;;;1.40;;
59306;SDS011;47983;53.016;-2.260;2023-07-13T15:31:50;7.30;;;1.20;;
59306;SDS011;47983;53.016;-2.260;2023-07-13T15:34:19;3.03;;;1.00;;
59306;SDS011;47983;53.016;-2.260;2023-07-13T15:36:51;3.75;;;1.20;;
59306;SDS011;47983;53.016;-2.260;2023-07-13T15:39:19;4.30;;;1.10;;
59306;SDS011;47983;53.016;-2.260;2023-07-13T15:41:47;4.05;;;1.30;;
59306;SDS011;47983;53.016;-2.260;2023-07-13T15:44:22;3.05;;;1.05;;
59306;SDS011;47983;53.016;-2.260;2023-07-13T15:46:51;3.38;;;1.05;;
59306;SDS011;47983;53.016;-2.260;2023-07-13T15:49:20;2.50;;;1.40;;
59306;SDS011;47983;53.016;-2.260;2023-07-13T15:51:48;4.88;;;1.83;;
59306;SDS011;47983;53.016;-2.260;2023-07-13T15:54:17;2.20;;;1.10;;
59306;SDS011;47983;53.016;-2.260;2023-07-13T15:56:49;3.28;;;1.35;;